Observations for VALLEY RAF, United Kingdom (EGOV)

EGOV 260450Z AUTO 12005KT 6000 BR NCD 13/12 Q1018   
EGOV 260350Z AUTO 14004KT 6000 BR NCD 15/14 Q1018   
EGOV 260250Z AUTO 15004KT 7000 BR FEW030/// 15/14 Q1018 
EGOV 260150Z AUTO 14005KT 8000 HZ FEW023/// BKN030/// 16/15 Q1019   
EGOV 260050Z AUTO 14005KT 9999 SCT023/// 16/15 Q1019
EGOV 252350Z AUTO 16005KT 9999 OVC021/// 17/15 Q1019
EGOV 252250Z AUTO 19006KT 8000 BR BKN020/// 17/16 Q1019 
EGOV 252150Z AUTO 19007KT 5000 BR FEW023/// 16/15 Q1019 
EGOV 252050Z AUTO 20007KT 7000 BR NCD 16/15 Q1019   
EGOV 251950Z AUTO 21007KT 8000 HZ NCD 17/16 Q1019   
EGOV 251850Z AUTO 22009KT 9000 HZ NCD 17/15 Q1019   
EGOV 251750Z AUTO 21010KT 9999 NCD 18/16 Q1018  
EGOV 251650Z AUTO 21010KT 9999 NCD 18/15 Q1018  
EGOV 251550Z AUTO 22010KT 9999 NCD 19/15 Q1018  
EGOV 251450Z AUTO 23011KT 9999 NCD 19/15 Q1018  
EGOV 251350Z AUTO 22014KT 9999 FEW017/// 19/15 Q1018
EGOV 251250Z AUTO 22009KT 9999 OVC015/// 19/15 Q1018
EGOV 251150Z AUTO 23009KT 9999 OVC015/// 19/15 Q1018
EGOV 251050Z AUTO 24007KT 9999 FEW003/// BKN013/// 18/15 Q1018  
EGOV 250950Z AUTO 22007KT 9999 BKN001/// 17/16 Q1017
EGOV 250850Z AUTO 21004KT 0550 FG VV/// 16/15 Q1017 
EGOV 250750Z AUTO 18004KT 0700 FG BKN001/// 16/15 Q1017 
EGOV 250650Z AUTO 20005KT 0300 FG VV/// 15/15 Q1016 
EGOV 250550Z AUTO 21006KT 0150 -RADZ SCT001/// 16/15 Q1016  
EGOV 250450Z AUTO 22004KT 9999 SCT140/// 16/14 Q1016